Time;durP1;ratioP1;P1;durP2;ratioP2;P2;SDS_P1;SDS_P2;PMS_P1;PMS_P2;Temp;Humidity;BMP_temperature;BMP_pressure;BME280_temperature;BME280_humidity;BME280_pressure;Samples;Min_cycle;Max_cycle;Signal;HPM_P1;HPM_P2
2022/11/24 00:00:17;;;;;;;;;3.00;1.67;;;;;21.65;47.80;100289.75;5037056;28;45363;-79
2022/11/24 00:02:42;;;;;;;;;2.00;1.00;;;;;21.69;47.33;100298.97;5046301;28;45507;-79
2022/11/24 00:05:07;;;;;;;;;4.00;2.67;;;;;21.69;47.21;100303.44;5039317;28;45296;-79
2022/11/24 00:07:33;;;;;;;;;4.33;1.00;;;;;21.68;47.59;100323.78;5036783;28;47257;-79
2022/11/24 00:09:58;;;;;;;;;4.00;1.00;;;;;21.58;47.79;100312.72;5036627;28;45313;-80
2022/11/24 00:12:23;;;;;;;;;9.00;3.00;;;;;21.70;47.18;100327.06;5037185;28;45497;-80
2022/11/24 00:14:48;;;;;;;;;2.67;2.33;;;;;21.68;46.97;100339.69;5036927;28;45490;-79
2022/11/24 00:17:14;;;;;;;;;1.00;1.00;;;;;21.71;47.65;100338.47;5036870;28;46157;-79
2022/11/24 00:19:40;;;;;;;;;7.67;1.67;;;;;21.68;47.43;100329.09;5046030;28;45317;-79
2022/11/24 00:22:06;;;;;;;;;4.67;2.67;;;;;21.70;46.99;100336.84;5039561;28;45486;-79
2022/11/24 00:24:31;;;;;;;;;5.33;2.00;;;;;21.38;47.33;100274.47;5036474;28;45375;-79
2022/11/24 00:26:56;;;;;;;;;3.33;3.33;;;;;21.69;47.00;100321.97;5036653;28;47310;-80
2022/11/24 00:29:22;;;;;;;;;4.67;2.00;;;;;21.69;46.87;100332.56;5036684;28;45519;-79
2022/11/24 00:31:47;;;;;;;;;4.00;2.67;;;;;21.62;46.84;100330.66;5036713;28;45631;-79
2022/11/24 00:34:13;;;;;;;;;3.33;2.00;;;;;21.66;47.12;100335.59;5036504;28;45418;-80
2022/11/24 00:36:39;;;;;;;;;6.67;1.33;;;;;21.65;47.15;100350.66;5036526;28;47212;-79
2022/11/24 00:39:09;;;;;;;;;0.67;0.00;;;;;21.70;46.75;100364.13;5036149;28;45402;-79
2022/11/24 00:41:34;;;;;;;;;2.33;1.00;;;;;21.69;47.25;100361.69;5036775;28;45428;-80
2022/11/24 00:43:59;;;;;;;;;5.00;2.00;;;;;21.68;47.24;100375.91;5041047;28;45392;-80
2022/11/24 00:46:26;;;;;;;;;1.00;1.00;;;;;21.68;47.13;100382.03;5036212;28;45345;-79
2022/11/24 00:48:52;;;;;;;;;4.67;1.33;;;;;21.67;46.92;100395.47;5036765;28;45299;-79
2022/11/24 00:51:20;;;;;;;;;1.33;0.33;;;;;21.33;46.80;100334.25;5035302;28;45540;-81
2022/11/24 00:53:46;;;;;;;;;5.00;0.00;;;;;21.67;47.44;100396.31;5035837;28;45465;-80
2022/11/24 00:56:12;;;;;;;;;1.67;1.33;;;;;21.68;46.82;100399.75;5014786;28;46223;-79
2022/11/24 00:58:38;;;;;;;;;1.00;1.00;;;;;21.67;46.93;100401.59;5027600;28;45316;-80
2022/11/24 01:01:15;;;;;;;;;4.33;3.00;;;;;21.63;47.31;100390.56;5036611;28;45264;-79
2022/11/24 01:03:41;;;;;;;;;2.33;1.00;;;;;21.65;47.25;100406.25;5042591;28;45617;-80
2022/11/24 01:06:13;;;;;;;;;2.67;1.67;;;;;21.67;46.82;100408.72;5035716;28;46254;-79
2022/11/24 01:08:39;;;;;;;;;4.33;0.67;;;;;21.65;47.43;100413.38;5035645;28;45287;-79
2022/11/24 01:11:18;;;;;;;;;1.33;1.33;;;;;21.66;47.42;100425.59;5036240;28;45454;-79
2022/11/24 01:13:45;;;;;;;;;4.67;1.67;;;;;21.65;47.32;100424.78;5035860;28;45302;-80
2022/11/24 01:16:22;;;;;;;;;5.67;1.00;;;;;21.65;46.75;100431.91;5035966;28;47258;-79
2022/11/24 01:18:48;;;;;;;;;1.67;1.67;;;;;21.63;47.03;100440.03;5035660;28;45430;-80
2022/11/24 01:21:15;;;;;;;;;2.33;1.00;;;;;21.60;46.93;100440.41;5035831;28;45327;-79
2022/11/24 01:23:40;;;;;;;;;1.33;0.67;;;;;21.64;46.82;100444.34;5036125;28;45482;-80
2022/11/24 01:26:07;;;;;;;;;1.33;1.33;;;;;21.62;47.21;100455.09;5035145;28;46050;-79
2022/11/24 01:28:33;;;;;;;;;4.33;2.67;;;;;21.29;47.00;100403.44;5021169;28;45452;-80
2022/11/24 01:31:01;;;;;;;;;3.00;2.00;;;;;21.61;47.39;100456.13;5027691;28;45411;-80
2022/11/24 01:33:26;;;;;;;;;0.00;0.00;;;;;21.60;46.74;100451.81;5036031;28;45468;-79
2022/11/24 01:35:52;;;;;;;;;2.00;0.00;;;;;21.61;47.32;100465.88;5035015;28;45289;-80
2022/11/24 01:38:17;;;;;;;;;2.67;1.33;;;;;21.60;47.20;100462.41;5035711;28;45455;-80
2022/11/24 01:40:42;;;;;;;;;4.67;0.67;;;;;21.61;47.17;100455.28;5035633;28;45882;-80
2022/11/24 01:43:16;;;;;;;;;0.67;0.00;;;;;21.59;46.83;100474.00;5035691;28;45312;-79
2022/11/24 01:45:41;;;;;;;;;1.00;0.00;;;;;21.58;47.12;100476.84;5034258;28;45437;-79
2022/11/24 01:48:42;;;;;;;;;3.67;1.67;;;;;21.57;47.19;100478.66;5017450;28;45474;-80
2022/11/24 01:51:19;;;;;;;;;2.00;2.00;;;;;21.56;46.55;100484.16;5034719;28;45412;-79
2022/11/24 01:53:59;;;;;;;;;2.00;1.33;;;;;21.56;47.15;100487.63;5035369;28;45334;-79
2022/11/24 01:56:26;;;;;;;;;1.00;1.00;;;;;21.55;46.73;100483.31;5026597;28;46242;-80
2022/11/24 01:58:56;;;;;;;;;1.33;1.00;;;;;21.55;47.05;100482.50;5016998;28;46018;-80
2022/11/24 02:01:22;;;;;;;;;0.33;0.33;;;;;21.45;46.67;100472.19;5035399;28;45347;-79
2022/11/24 02:03:49;;;;;;;;;2.00;2.00;;;;;21.56;46.89;100500.03;5039621;28;45338;-80
2022/11/24 02:06:26;;;;;;;;;1.00;1.00;;;;;21.46;47.11;100490.56;5041585;28;47150;-79
2022/11/24 02:08:59;;;;;;;;;2.67;1.00;;;;;21.56;46.80;100515.91;5041564;28;45447;-80
2022/11/24 02:11:29;;;;;;;;;2.00;2.00;;;;;21.57;47.00;100520.22;5042333;28;45414;-80
2022/11/24 02:13:56;;;;;;;;;4.00;2.00;;;;;21.35;46.98;100494.50;5041676;28;45576;-80
2022/11/24 02:16:21;;;;;;;;;1.00;1.00;;;;;21.57;47.00;100533.44;5042052;28;46015;-80
2022/11/24 02:18:47;;;;;;;;;2.33;1.00;;;;;21.24;46.77;100494.94;5041054;28;45488;-79
2022/11/24 02:21:14;;;;;;;;;2.67;1.00;;;;;21.47;46.99;100533.72;5042203;28;45502;-80
2022/11/24 02:24:01;;;;;;;;;1.67;1.67;;;;;21.54;47.00;100545.22;5042624;28;45363;-80
2022/11/24 02:26:29;;;;;;;;;2.00;0.00;;;;;21.56;46.67;100558.25;5041995;28;47428;-79
2022/11/24 02:28:55;;;;;;;;;2.67;2.00;;;;;21.55;46.67;100559.25;5023265;28;45379;-80
2022/11/24 02:31:21;;;;;;;;;2.67;1.67;;;;;21.55;46.68;100557.44;5041585;28;45358;-80
2022/11/24 02:33:49;;;;;;;;;0.33;0.33;;;;;21.46;46.76;100551.44;5041334;28;45482;-80
2022/11/24 02:36:14;;;;;;;;;1.67;0.67;;;;;21.54;46.83;100555.00;5041398;28;47158;-79
2022/11/24 02:38:40;;;;;;;;;2.00;2.00;;;;;21.40;46.71;100550.34;5041374;28;45352;-80
2022/11/24 02:41:10;;;;;;;;;1.33;1.00;;;;;21.54;46.74;100571.69;5041686;28;45241;-80
2022/11/24 02:43:43;;;;;;;;;1.67;1.67;;;;;21.52;47.19;100571.03;5041725;28;45605;-80
2022/11/24 02:46:09;;;;;;;;;3.33;1.33;;;;;21.48;46.60;100572.41;5041324;28;45397;-80
2022/11/24 02:48:35;;;;;;;;;1.00;0.00;;;;;21.51;46.64;100588.78;5049593;28;45401;-79
2022/11/24 02:51:01;;;;;;;;;0.67;0.67;;;;;21.52;47.18;100582.44;5041695;28;45296;-80
2022/11/24 02:53:26;;;;;;;;;0.50;0.50;;;;;21.54;46.76;100600.00;5041196;28;45389;-79
2022/11/24 02:55:52;;;;;;;;;1.00;1.00;;;;;21.52;46.58;100610.75;5041117;28;47017;-79
2022/11/24 02:58:17;;;;;;;;;3.00;1.67;;;;;21.51;46.68;100607.31;5041039;28;46135;-80
2022/11/24 03:00:42;;;;;;;;;0.67;0.67;;;;;21.21;46.55;100564.13;5020487;28;45315;-80
2022/11/24 03:03:08;;;;;;;;;1.00;1.00;;;;;21.45;46.93;100600.06;5036325;28;45366;-80
2022/11/24 03:05:33;;;;;;;;;2.00;2.00;;;;;;;;5041293;28;47064;-79
2022/11/24 03:07:58;;;;;;;;;2.00;0.67;;;;;21.51;46.94;100612.59;5040964;28;45429;-79
2022/11/24 03:10:24;;;;;;;;;4.00;1.00;;;;;21.37;46.59;100590.41;5041042;28;45781;-80
2022/11/24 03:12:49;;;;;;;;;1.67;0.67;;;;;21.50;46.69;100628.63;5041292;28;45333;-80
2022/11/24 03:15:14;;;;;;;;;1.33;0.67;;;;;21.51;47.13;100643.53;5038319;28;46044;-80
2022/11/24 03:17:40;;;;;;;;;1.33;1.33;;;;;21.40;46.50;100621.81;5037917;28;45407;-80
2022/11/24 03:20:06;;;;;;;;;2.67;2.67;;;;;21.34;46.47;100616.41;5037556;28;45391;-80
2022/11/24 03:22:31;;;;;;;;;0.67;0.67;;;;;21.49;46.86;100643.69;5037988;28;45320;-80
2022/11/24 03:24:57;;;;;;;;;1.33;1.33;;;;;21.48;46.67;100650.00;5037732;28;45965;-79
2022/11/24 03:27:22;;;;;;;;;4.33;1.67;;;;;21.48;46.95;100659.78;5037755;28;45527;-80
2022/11/24 03:29:48;;;;;;;;;1.33;0.67;;;;;21.13;46.67;100612.66;5038119;28;45592;-80
2022/11/24 03:32:13;;;;;;;;;1.67;1.00;;;;;21.47;46.27;100669.53;5037144;28;45525;-79
2022/11/24 03:34:38;;;;;;;;;0.67;0.00;;;;;21.48;46.67;100673.00;5037083;28;46693;-79
2022/11/24 03:37:04;;;;;;;;;1.00;0.67;;;;;21.43;46.44;100662.97;5037417;28;47321;-80
2022/11/24 03:39:29;;;;;;;;;1.00;0.00;;;;;21.49;46.70;100680.75;5037446;28;46977;-79
2022/11/24 03:41:54;;;;;;;;;1.00;0.33;;;;;21.49;46.73;100686.03;5037526;28;45430;-80
2022/11/24 03:44:20;;;;;;;;;0.00;0.00;;;;;21.38;46.66;100671.44;5037517;28;48256;-79
2022/11/24 03:46:45;;;;;;;;;2.67;0.67;;;;;21.49;46.46;100694.00;5037083;28;45387;-79
2022/11/24 03:49:10;;;;;;;;;1.67;0.67;;;;;21.17;47.09;100635.09;5037700;28;45276;-80
2022/11/24 03:51:35;;;;;;;;;0.33;0.33;;;;;21.50;46.50;100679.75;5037408;28;45317;-80
2022/11/24 03:54:01;;;;;;;;;2.00;0.67;;;;;21.46;46.92;100675.84;5037141;28;45501;-80
2022/11/24 03:56:26;;;;;;;;;3.00;0.00;;;;;21.38;46.43;100668.81;5019486;28;45465;-80
2022/11/24 03:58:52;;;;;;;;;0.67;0.67;;;;;21.50;46.47;100689.53;5037338;28;45342;-80
2022/11/24 04:01:17;;;;;;;;;1.00;1.00;;;;;;;;5037147;28;45509;-80
2022/11/24 04:03:42;;;;;;;;;5.00;1.00;;;;;21.49;46.71;100696.63;5037166;28;47049;-80
2022/11/24 04:06:08;;;;;;;;;2.67;1.00;;;;;21.38;46.51;100679.38;5037411;28;45366;-79
2022/11/24 04:08:33;;;;;;;;;2.33;0.33;;;;;21.46;47.01;100685.59;5032755;28;45288;-79
2022/11/24 04:10:59;;;;;;;;;4.00;1.00;;;;;21.48;46.43;100695.00;5031511;28;45362;-80
2022/11/24 04:13:24;;;;;;;;;1.00;0.33;;;;;21.36;46.59;100688.50;5036494;28;46107;-80
2022/11/24 04:15:51;;;;;;;;;1.00;1.00;;;;;21.48;46.91;100700.31;5036850;28;45307;-80
2022/11/24 04:18:16;;;;;;;;;1.00;1.00;;;;;21.44;46.31;100700.84;5036171;28;45399;-78
2022/11/24 04:20:42;;;;;;;;;1.00;1.00;;;;;21.47;46.40;100706.59;5036861;28;45367;-79
2022/11/24 04:23:09;;;;;;;;;3.00;0.00;;;;;21.47;46.29;100708.41;5036621;28;47288;-79
2022/11/24 04:25:34;;;;;;;;;0.00;0.00;;;;;21.44;46.90;100698.19;5036167;28;45448;-80
2022/11/24 04:27:59;;;;;;;;;1.00;1.00;;;;;21.47;46.37;100703.94;5037026;28;45409;-80
2022/11/24 04:30:26;;;;;;;;;2.67;1.00;;;;;21.47;46.33;100708.41;5018584;28;45438;-80
2022/11/24 04:32:52;;;;;;;;;1.00;1.00;;;;;21.46;46.52;100714.72;5036582;28;46327;-80
2022/11/24 04:35:18;;;;;;;;;1.00;1.00;;;;;21.46;46.72;100715.53;5036701;28;45288;-80
2022/11/24 04:37:44;;;;;;;;;1.00;0.00;;;;;21.11;46.52;100670.19;5022809;28;45356;-79
2022/11/24 04:40:10;;;;;;;;;0.67;0.67;;;;;;;;5036908;28;45377;-80
2022/11/24 04:42:36;;;;;;;;;3.00;0.00;;;;;21.33;46.50;100689.69;5036575;28;46700;-80
2022/11/24 04:45:01;;;;;;;;;2.00;0.00;;;;;21.45;46.36;100707.78;5036033;28;45621;-80
2022/11/24 04:47:27;;;;;;;;;0.67;0.67;;;;;21.43;46.35;100713.25;5036381;28;45687;-79
2022/11/24 04:49:52;;;;;;;;;1.00;1.00;;;;;21.08;46.84;100665.28;5036852;28;45347;-80
2022/11/24 04:52:19;;;;;;;;;1.67;1.67;;;;;21.45;46.39;100721.84;5036456;28;46262;-80
2022/11/24 04:54:45;;;;;;;;;1.00;1.00;;;;;21.39;46.24;100714.63;5034426;28;45592;-80
2022/11/24 04:57:19;;;;;;;;;0.67;0.67;;;;;21.35;46.63;100708.03;5024718;28;45464;-80
2022/11/24 04:59:45;;;;;;;;;0.67;0.67;;;;;21.31;46.88;100707.56;5035463;28;45290;-80
2022/11/24 05:02:11;;;;;;;;;0.00;0.00;;;;;21.42;46.35;100724.84;5036273;28;47310;-80
2022/11/24 05:04:36;;;;;;;;;2.00;1.00;;;;;21.37;46.63;100706.84;5036467;28;45456;-80
2022/11/24 05:07:02;;;;;;;;;1.33;1.00;;;;;21.40;46.55;100725.03;5036361;28;45521;-80
2022/11/24 05:09:28;;;;;;;;;2.00;0.00;;;;;21.42;46.70;100724.84;5016142;28;45352;-80
2022/11/24 05:11:53;;;;;;;;;2.00;2.00;;;;;21.38;46.66;100720.91;5035893;28;45450;-80
2022/11/24 05:14:18;;;;;;;;;1.00;1.00;;;;;21.23;46.46;100697.06;5035521;28;45371;-80
2022/11/24 05:16:44;;;;;;;;;2.00;2.00;;;;;21.44;46.50;100736.09;5036234;28;45295;-80
2022/11/24 05:19:09;;;;;;;;;0.00;0.00;;;;;21.46;46.20;100741.19;5036440;28;45232;-80
2022/11/24 05:21:35;;;;;;;;;0.00;0.00;;;;;21.45;46.41;100745.66;5038902;28;45898;-79
2022/11/24 05:24:01;;;;;;;;;2.00;0.00;;;;;21.34;46.73;100732.84;5036613;28;45370;-79
2022/11/24 05:26:26;;;;;;;;;1.00;1.00;;;;;21.47;46.35;100764.00;5036043;28;45621;-80
2022/11/24 05:28:52;;;;;;;;;1.00;1.00;;;;;21.46;46.26;100763.19;5035755;28;45359;-80
2022/11/24 05:31:18;;;;;;;;;0.00;0.00;;;;;21.38;46.29;100752.66;5036101;28;46341;-79
2022/11/24 05:33:44;;;;;;;;;1.00;1.00;;;;;21.30;46.08;100745.63;5035739;28;45474;-80
2022/11/24 05:36:51;;;;;;;;;1.00;0.00;;;;;21.33;46.45;100749.72;5035920;28;45590;-80
2022/11/24 05:38:55;;;;;;;;;0.00;0.00;;;;;21.13;45.95;100726.41;5034599;28;45450;-80
2022/11/24 05:41:20;;;;;;;;;0.00;0.00;;;;;21.42;46.16;100777.75;5035674;28;46999;-80
2022/11/24 05:43:46;;;;;;;;;1.33;1.00;;;;;21.35;46.49;100764.44;5035035;28;46494;-79
2022/11/24 05:46:11;;;;;;;;;2.00;1.00;;;;;21.36;46.34;100771.38;5035441;28;45386;-79
2022/11/24 05:48:36;;;;;;;;;0.67;0.33;;;;;21.44;46.51;100782.91;5035705;28;45346;-80
2022/11/24 05:51:02;;;;;;;;;4.00;1.67;;;;;21.09;46.64;100733.03;5035144;28;52834;-79
2022/11/24 05:53:27;;;;;;;;;1.00;0.00;;;;;21.35;46.43;100776.84;5035631;28;45545;-80
2022/11/24 05:55:53;;;;;;;;;0.00;0.00;;;;;21.32;46.09;100778.00;5024106;28;45348;-80
2022/11/24 05:58:18;;;;;;;;;0.00;0.00;;;;;21.42;46.24;100780.41;5011357;28;45546;-80
2022/11/24 06:00:43;;;;;;;;;2.00;1.00;;;;;21.27;46.20;100775.06;5024667;28;45809;-80
2022/11/24 06:03:10;;;;;;;;;2.00;1.00;;;;;21.37;46.16;100794.19;5034937;28;45372;-80
2022/11/24 06:05:36;;;;;;;;;0.00;0.00;;;;;21.42;46.17;100812.16;5035692;28;45298;-80
2022/11/24 06:08:01;;;;;;;;;2.67;1.00;;;;;21.42;46.17;100811.38;5035075;28;45162;-79
2022/11/24 06:10:27;;;;;;;;;1.00;0.00;;;;;21.42;46.63;100820.13;5035402;28;46276;-80
2022/11/24 06:12:52;;;;;;;;;0.00;0.00;;;;;21.40;46.66;100822.13;5034737;28;45229;-79
2022/11/24 06:15:18;;;;;;;;;1.00;0.00;;;;;21.33;46.08;100815.88;5034980;28;45438;-79
2022/11/24 06:17:51;;;;;;;;;0.00;0.00;;;;;21.39;46.68;100831.88;5035575;28;45395;-79
2022/11/24 06:20:16;;;;;;;;;0.67;0.33;;;;;21.31;46.13;100810.78;5028273;28;47450;-78
2022/11/24 06:22:41;;;;;;;;;1.00;1.00;;;;;21.41;46.46;100837.00;5023321;28;45343;-79
2022/11/24 06:25:08;;;;;;;;;2.00;1.00;;;;;21.35;45.81;100827.94;5035292;28;45428;-79
2022/11/24 06:27:33;;;;;;;;;0.00;0.00;;;;;21.26;46.49;100819.22;5034990;28;45496;-79
2022/11/24 06:29:59;;;;;;;;;0.00;0.00;;;;;21.26;46.58;100813.94;5035044;28;45700;-80
2022/11/24 06:32:25;;;;;;;;;2.00;1.00;;;;;21.39;46.64;100839.03;5035182;28;45382;-78
2022/11/24 06:34:50;;;;;;;;;0.67;0.67;;;;;21.06;46.49;100787.13;5035256;28;45484;-79
2022/11/24 06:37:15;;;;;;;;;0.00;0.00;;;;;21.38;46.15;100838.19;5036163;28;45509;-79
2022/11/24 06:39:41;;;;;;;;;0.00;0.00;;;;;21.31;45.93;100833.78;5035276;28;45404;-79
2022/11/24 06:42:06;;;;;;;;;0.67;0.00;;;;;21.37;46.47;100835.69;5016306;28;45401;-79
2022/11/24 06:44:32;;;;;;;;;0.00;0.00;;;;;21.21;46.23;100813.63;5034887;28;45363;-79
2022/11/24 06:46:57;;;;;;;;;1.00;1.00;;;;;21.37;45.99;100841.00;5034795;28;45592;-79
2022/11/24 06:49:22;;;;;;;;;0.00;0.00;;;;;21.36;46.12;100842.84;5034715;28;46005;-78
2022/11/24 06:51:48;;;;;;;;;0.00;0.00;;;;;21.39;46.22;100849.59;5038266;28;45401;-81
2022/11/24 06:54:15;;;;;;;;;1.33;0.33;;;;;21.39;46.57;100855.69;5038075;28;45398;-73
2022/11/24 06:56:40;;;;;;;;;0.67;0.00;;;;;21.40;46.20;100857.34;5003028;28;45395;-73
2022/11/24 06:59:05;;;;;;;;;3.00;1.00;;;;;21.26;46.33;100837.75;5027609;28;46217;-72
2022/11/24 07:01:31;;;;;;;;;1.67;1.00;;;;;21.29;46.22;100849.81;5037962;28;45382;-73
2022/11/24 07:03:56;;;;;;;;;0.33;0.33;;;;;21.42;46.40;100873.06;5020149;28;45483;-75
2022/11/24 07:06:24;;;;;;;;;1.00;1.00;;;;;21.42;46.09;100881.00;5029866;28;45586;-76
2022/11/24 07:08:50;;;;;;;;;0.00;0.00;;;;;21.32;46.25;100867.16;5034482;28;46485;-75
2022/11/24 07:11:19;;;;;;;;;0.33;0.33;;;;;21.42;46.25;100885.50;5031252;28;45428;-76
2022/11/24 07:13:45;;;;;;;;;1.00;1.00;;;;;;;;5030270;28;45422;-76
2022/11/24 07:16:19;;;;;;;;;1.67;0.00;;;;;21.43;46.91;100898.53;5032043;28;45522;-80
2022/11/24 07:18:45;;;;;;;;;1.00;0.00;;;;;21.30;46.49;100880.56;5030847;28;45563;-76
2022/11/24 07:21:11;;;;;;;;;0.00;0.00;;;;;;;;5027472;28;45482;-76
2022/11/24 07:23:37;;;;;;;;;1.00;1.00;;;;;21.11;46.98;100847.44;5030833;28;45469;-77
2022/11/24 07:26:04;;;;;;;;;1.00;1.00;;;;;21.43;46.61;100898.53;5030964;28;45461;-76
2022/11/24 07:28:30;;;;;;;;;0.00;0.00;;;;;21.39;46.82;100891.94;5035004;28;46200;-76
2022/11/24 07:30:55;;;;;;;;;1.00;0.00;;;;;21.31;46.62;100886.69;5017029;28;45364;-79
2022/11/24 07:33:24;;;;;;;;;1.67;1.00;;;;;21.36;46.44;100898.41;5022350;28;45390;-75
2022/11/24 07:35:50;;;;;;;;;2.67;0.00;;;;;21.32;46.24;100897.09;5027675;28;45467;-80
2022/11/24 07:38:15;;;;;;;;;1.00;0.00;;;;;21.33;46.55;100911.16;5025179;28;46998;-82
2022/11/24 07:40:41;;;;;;;;;1.00;0.00;;;;;21.40;46.83;100928.81;5021396;28;45386;-82
2022/11/24 07:43:06;;;;;;;;;0.67;0.67;;;;;21.42;46.59;100928.63;5024023;28;45903;-82
2022/11/24 07:45:32;;;;;;;;;0.00;0.00;;;;;21.44;46.94;100931.97;5017609;28;45284;-82
2022/11/24 07:47:57;;;;;;;;;0.00;0.00;;;;;21.39;46.88;100929.81;5025197;28;45531;-82
2022/11/24 07:50:22;;;;;;;;;0.00;0.00;;;;;21.45;46.88;100940.69;5026050;28;45367;-82
2022/11/24 07:52:48;;;;;;;;;0.00;0.00;;;;;;;;5019073;28;45375;-82
2022/11/24 07:55:13;;;;;;;;;0.00;0.00;;;;;21.46;46.90;100956.44;5027605;28;45573;-82
2022/11/24 07:57:39;;;;;;;;;0.00;0.00;;;;;21.44;46.23;100963.72;5010633;28;47211;-82
2022/11/24 08:00:05;;;;;;;;;1.33;0.00;;;;;21.40;46.40;100957.94;5035085;28;45461;-82
2022/11/24 08:02:32;;;;;;;;;0.67;0.00;;;;;21.48;46.27;100964.19;5028975;28;45390;-82
2022/11/24 08:04:57;;;;;;;;;0.33;0.00;;;;;21.49;46.73;100960.53;5037073;28;45327;-82
2022/11/24 08:07:23;;;;;;;;;0.67;0.00;;;;;21.37;46.57;100941.56;5036889;28;46157;-82
2022/11/24 08:09:49;;;;;;;;;3.00;0.00;;;;;21.48;46.19;100966.81;5036921;28;45367;-82
2022/11/24 08:12:16;;;;;;;;;1.00;1.00;;;;;21.37;46.42;100958.28;5022593;28;45325;-82
2022/11/24 08:14:42;;;;;;;;;1.00;1.00;;;;;21.36;46.34;100951.34;5037188;28;45212;-83
2022/11/24 08:17:07;;;;;;;;;1.00;0.67;;;;;21.38;46.25;100944.06;5037018;28;47038;-83
2022/11/24 08:19:33;;;;;;;;;0.00;0.00;;;;;21.49;46.59;100974.59;5015937;28;45529;-83
2022/11/24 08:21:59;;;;;;;;;0.00;0.00;;;;;21.21;46.34;100924.78;5035454;28;45520;-83
2022/11/24 08:24:25;;;;;;;;;0.00;0.00;;;;;21.51;45.96;100969.97;5037241;28;45461;-82
2022/11/24 08:26:51;;;;;;;;;0.00;0.00;;;;;21.45;46.30;100965.34;5036961;28;45456;-83
2022/11/24 08:29:16;;;;;;;;;3.33;0.33;;;;;21.40;46.47;100967.69;5037003;28;45461;-83
2022/11/24 08:31:41;;;;;;;;;0.00;0.00;;;;;21.51;45.92;100966.50;5037073;28;45272;-83
2022/11/24 08:34:07;;;;;;;;;1.00;0.00;;;;;21.44;46.05;100955.78;5036500;28;45497;-83
2022/11/24 08:36:33;;;;;;;;;1.67;0.67;;;;;21.56;46.10;100968.59;5036643;28;45384;-83
2022/11/24 08:38:59;;;;;;;;;0.00;0.00;;;;;21.51;46.17;100969.97;5035944;28;45244;-83
2022/11/24 08:41:26;;;;;;;;;0.00;0.00;;;;;21.48;45.94;100964.19;5037022;28;45405;-83
2022/11/24 08:43:52;;;;;;;;;0.67;0.67;;;;;21.58;45.96;100988.63;5036592;28;45379;-83
2022/11/24 08:46:18;;;;;;;;;0.00;0.00;;;;;21.47;46.42;100965.16;5036173;28;45489;-82
2022/11/24 08:48:53;;;;;;;;;1.00;1.00;;;;;21.59;46.34;100997.38;5037002;28;45511;-83
2022/11/24 08:51:22;;;;;;;;;1.00;1.00;;;;;21.37;46.24;100962.75;5036230;28;45260;-83
2022/11/24 08:53:47;;;;;;;;;0.67;0.00;;;;;21.55;46.45;100996.91;5036733;28;45388;-83
2022/11/24 08:56:13;;;;;;;;;0.33;0.33;;;;;21.59;46.09;100989.44;5022040;28;45337;-83
2022/11/24 08:58:40;;;;;;;;;0.00;0.00;;;;;21.59;45.92;100984.97;5036436;28;45302;-83
2022/11/24 09:01:14;;;;;;;;;0.00;0.00;;;;;21.60;45.93;100976.03;5036559;28;45429;-83
2022/11/24 09:03:40;;;;;;;;;1.00;1.00;;;;;21.39;46.26;100944.88;5036191;28;45522;-83
2022/11/24 09:06:07;;;;;;;;;2.00;0.00;;;;;21.58;45.92;100964.78;5024461;28;45350;-83
2022/11/24 09:08:34;;;;;;;;;1.00;0.00;;;;;21.59;45.94;100966.44;5033823;28;45337;-83
2022/11/24 09:11:05;;;;;;;;;0.67;0.67;;;;;21.58;46.30;100953.38;5036259;28;45388;-83
2022/11/24 09:13:31;;;;;;;;;0.00;0.00;;;;;21.57;46.48;100957.84;5034769;28;45291;-82
2022/11/24 09:16:02;;;;;;;;;0.00;0.00;;;;;21.44;46.22;100947.84;5036243;28;45522;-83
2022/11/24 09:18:27;;;;;;;;;0.00;0.00;;;;;21.45;45.96;100946.00;5036006;28;45525;-83
2022/11/24 09:20:57;;;;;;;;;0.33;0.33;;;;;21.55;45.89;100951.88;5035987;28;45355;-83
2022/11/24 09:23:22;;;;;;;;;2.67;0.67;;;;;21.58;46.35;100963.97;5040425;28;45326;-83
2022/11/24 09:25:47;;;;;;;;;0.00;0.00;;;;;21.59;46.01;100955.03;5035764;28;46225;-83
2022/11/24 09:28:13;;;;;;;;;1.00;1.00;;;;;21.55;45.97;100943.94;5036164;28;45340;-83
2022/11/24 09:30:38;;;;;;;;;1.00;0.00;;;;;21.59;45.87;100949.72;5036061;28;45673;-83
2022/11/24 09:33:04;;;;;;;;;1.00;1.00;;;;;21.50;46.26;100938.34;5035099;28;45458;-83
2022/11/24 09:35:29;;;;;;;;;0.67;0.67;;;;;21.45;45.84;100927.47;5035287;28;46139;-83
2022/11/24 09:37:54;;;;;;;;;0.33;0.00;;;;;21.61;46.01;100961.78;5036150;28;45303;-84
2022/11/24 09:40:21;;;;;;;;;2.00;0.67;;;;;21.50;46.26;100936.53;5035314;28;45461;-83
2022/11/24 09:43:16;;;;;;;;;2.00;0.00;;;;;21.64;46.08;100955.31;5035659;28;45628;-83
2022/11/24 09:45:54;;;;;;;;;0.00;0.00;;;;;21.65;46.33;100953.50;5035542;28;46889;-83
2022/11/24 09:48:29;;;;;;;;;0.00;0.00;;;;;21.66;46.14;100953.31;5034860;28;45299;-83
2022/11/24 09:51:00;;;;;;;;;0.33;0.00;;;;;21.66;46.35;100945.38;5035368;28;45425;-83
2022/11/24 09:53:35;;;;;;;;;1.00;1.00;;;;;21.67;46.21;100951.50;5035274;28;45486;-83
2022/11/24 09:56:23;;;;;;;;;2.67;1.00;;;;;21.67;46.25;100954.16;5022615;28;46061;-84
2022/11/24 09:59:10;;;;;;;;;1.67;0.33;;;;;21.60;45.89;100944.25;5035242;28;45374;-83
2022/11/24 10:01:39;;;;;;;;;0.00;0.00;;;;;21.59;46.07;100945.25;5035872;28;45336;-84
2022/11/24 10:04:15;;;;;;;;;3.00;1.00;;;;;21.66;45.84;100953.31;5036012;28;45450;-83
2022/11/24 10:06:52;;;;;;;;;0.00;0.00;;;;;21.67;45.95;100951.50;5042044;28;46364;-83
2022/11/24 10:09:41;;;;;;;;;0.00;0.00;;;;;21.66;46.16;100944.53;5035389;28;45474;-83
2022/11/24 10:12:23;;;;;;;;;0.67;0.00;;;;;21.66;45.81;100950.69;5035750;28;45339;-83
2022/11/24 10:15:07;;;;;;;;;0.00;0.00;;;;;21.65;45.76;100943.72;5036151;28;45605;-83
2022/11/24 10:17:50;;;;;;;;;0.00;0.00;;;;;21.64;45.90;100950.03;5036253;28;46416;-83
2022/11/24 10:20:37;;;;;;;;;2.00;1.33;;;;;21.66;46.18;100950.69;5035082;28;45596;-83
2022/11/24 10:23:44;;;;;;;;;0.67;0.67;;;;;21.56;45.90;100935.03;5037188;28;45417;-83
2022/11/24 10:26:36;;;;;;;;;1.00;1.00;;;;;21.59;45.71;100933.84;4939764;28;45323;-83
2022/11/24 10:29:11;;;;;;;;;2.00;1.00;;;;;21.65;46.22;100934.97;4883164;29;46235;-83
2022/11/24 10:31:41;;;;;;;;;0.00;0.00;;;;;21.63;45.76;100917.44;4882888;29;45394;-83
2022/11/24 10:34:23;;;;;;;;;1.00;1.00;;;;;21.62;45.63;100926.34;4882407;29;46246;-84
2022/11/24 10:36:58;;;;;;;;;1.00;1.00;;;;;21.63;45.93;100927.19;4881738;29;45301;-84
2022/11/24 10:40:05;;;;;;;;;3.00;0.67;;;;;21.61;46.16;100919.44;4888276;29;46143;-83
2022/11/24 10:42:35;;;;;;;;;0.00;0.00;;;;;21.58;45.88;100914.47;4825434;29;45481;-83
2022/11/24 10:45:02;;;;;;;;;0.00;0.00;;;;;21.61;45.90;100913.31;4816385;29;45339;-83
2022/11/24 10:47:28;;;;;;;;;2.00;0.67;;;;;21.51;46.18;100890.53;4824658;29;45381;-83
2022/11/24 10:50:01;;;;;;;;;0.67;0.00;;;;;21.46;45.97;100890.25;4825003;29;46135;-83
2022/11/24 10:52:37;;;;;;;;;1.00;1.00;;;;;21.27;45.65;100859.75;4824874;29;45444;-83
2022/11/24 10:55:04;;;;;;;;;0.00;0.00;;;;;21.55;45.74;100898.94;4824915;29;45390;-83
2022/11/24 10:57:39;;;;;;;;;0.33;0.33;;;;;21.54;45.93;100893.84;4825191;29;45356;-84
2022/11/24 11:00:25;;;;;;;;;0.00;0.00;;;;;21.60;46.22;100899.25;4862986;29;45550;-84
2022/11/24 11:03:10;;;;;;;;;0.00;0.00;;;;;21.60;46.27;100903.72;4904638;28;45378;-85
2022/11/24 11:05:42;;;;;;;;;0.67;0.00;;;;;21.59;45.70;100892.31;4907324;28;45463;-86
2022/11/24 11:08:18;;;;;;;;;0.67;0.67;;;;;21.54;46.39;100893.84;4973751;28;45654;-85
2022/11/24 11:10:46;;;;;;;;;0.67;0.33;;;;;21.58;46.27;100890.66;4975943;28;46351;-84
2022/11/24 11:13:28;;;;;;;;;0.00;0.00;;;;;21.57;46.22;100893.50;4976549;28;45459;-84
2022/11/24 11:15:55;;;;;;;;;1.33;1.00;;;;;21.54;45.83;100870.84;4964530;28;45609;-84
2022/11/24 11:18:25;;;;;;;;;1.33;0.33;;;;;21.55;46.18;100872.47;4976655;28;45507;-82
2022/11/24 11:20:55;;;;;;;;;2.67;0.67;;;;;21.50;45.96;100864.22;5038158;28;45438;-83
2022/11/24 11:23:28;;;;;;;;;1.67;0.00;;;;;21.58;46.08;100874.78;5037934;28;45299;-84
2022/11/24 11:26:32;;;;;;;;;0.33;0.33;;;;;21.58;46.19;100874.78;5038111;28;45421;-84
2022/11/24 11:29:11;;;;;;;;;0.00;0.00;;;;;21.58;45.96;100858.06;5035794;28;45616;-84
2022/11/24 11:31:38;;;;;;;;;2.00;0.33;;;;;21.46;46.20;100829.38;5037679;28;46254;-83
2022/11/24 11:34:09;;;;;;;;;1.00;0.00;;;;;21.59;46.12;100841.19;5037884;28;45384;-84